createdAt,value
2022-10-25T00:02:24.293Z,100797.47
2022-10-25T00:04:51.339Z,100796.63
2022-10-25T00:07:18.421Z,100795.25
2022-10-25T00:12:43.294Z,100788.78
2022-10-25T00:15:13.200Z,100789.59
2022-10-25T00:17:41.066Z,100783.38
2022-10-25T00:20:09.728Z,100779.88
2022-10-25T00:22:37.178Z,100788.50
2022-10-25T00:25:06.500Z,100791.75
2022-10-25T00:27:34.377Z,100789.88
2022-10-25T00:30:01.874Z,100785.28
2022-10-25T00:32:28.921Z,100792.28
2022-10-25T00:34:55.947Z,100794.72
2022-10-25T00:37:22.804Z,100799.56
2022-10-25T00:39:49.785Z,100796.63
2022-10-25T00:42:26.889Z,100791.47
2022-10-25T00:45:01.745Z,100805.25
2022-10-25T00:47:46.173Z,100790.13
2022-10-25T00:50:49.999Z,100789.31
2022-10-25T00:53:32.267Z,100803.34
2022-10-25T00:56:16.459Z,100799.56
2022-10-25T00:58:50.461Z,100787.44
2022-10-25T01:01:18.703Z,100787.16
2022-10-25T01:03:48.135Z,100791.19
2022-10-25T01:06:23.631Z,100803.59
2022-10-25T01:08:53.264Z,100803.88
2022-10-25T01:11:20.675Z,100804.97
2022-10-25T01:13:49.636Z,100811.97
2022-10-25T01:16:53.888Z,100802.00
2022-10-25T01:19:45.788Z,100789.59
2022-10-25T01:22:38.910Z,100792.59
2022-10-25T01:25:34.861Z,100800.97
2022-10-25T01:28:27.419Z,100783.44
2022-10-25T01:32:11.445Z,100789.09
2022-10-25T01:34:47.992Z,100793.97
2022-10-25T01:37:21.719Z,100785.34
2022-10-25T01:40:04.175Z,100792.09
2022-10-25T01:43:00.259Z,100809.63
2022-10-25T01:45:52.311Z,100785.88
2022-10-25T01:48:38.056Z,100788.84
2022-10-25T01:51:16.509Z,100783.94
2022-10-25T01:53:51.977Z,100788.53
2022-10-25T01:56:46.888Z,100787.69
2022-10-25T01:59:24.954Z,100781.75
2022-10-25T02:02:36.894Z,100786.34
2022-10-25T02:05:37.861Z,100786.06
2022-10-25T02:08:29.911Z,100791.16
2022-10-25T02:11:09.246Z,100792.22
2022-10-25T02:14:13.620Z,100791.69
2022-10-25T02:17:13.630Z,100785.72
2022-10-25T02:19:46.195Z,100784.13
2022-10-25T02:22:14.846Z,100794.63
2022-10-25T02:24:45.939Z,100791.94
2022-10-25T02:27:14.071Z,100800.84
2022-10-25T02:29:42.811Z,100797.88
2022-10-25T02:32:09.914Z,100797.31
2022-10-25T02:34:37.063Z,100802.47
2022-10-25T02:37:03.908Z,100805.16
2022-10-25T02:39:31.705Z,100798.69
2022-10-25T02:42:02.148Z,100802.72
2022-10-25T02:44:29.342Z,100794.91
2022-10-25T02:46:56.160Z,100803.00
2022-10-25T02:49:23.128Z,100796.81
2022-10-25T02:52:15.500Z,100798.66
2022-10-25T02:54:42.348Z,100803.53
2022-10-25T02:57:09.366Z,100803.28
2022-10-25T02:59:36.216Z,100803.53
2022-10-25T03:02:03.058Z,100805.69
2022-10-25T03:04:30.219Z,100818.91
2022-10-25T03:06:57.748Z,100807.84
2022-10-25T03:09:24.535Z,100809.22
2022-10-25T03:11:51.683Z,100809.22
2022-10-25T03:14:18.684Z,100818.66
2022-10-25T03:16:45.558Z,100815.66
2022-10-25T03:19:12.395Z,100828.34
2022-10-25T03:21:41.292Z,100828.09
2022-10-25T03:24:09.153Z,100827.28
2022-10-25T03:26:35.964Z,100840.50
2022-10-25T03:29:02.822Z,100828.09
2022-10-25T03:31:29.879Z,100835.09
2022-10-25T03:33:56.713Z,100820.81
2022-10-25T03:36:23.520Z,100826.22
2022-10-25T03:38:50.512Z,100829.44
2022-10-25T03:41:17.669Z,100834.03
2022-10-25T03:43:44.533Z,100843.47
2022-10-25T03:46:13.963Z,100850.75
2022-10-25T03:48:41.066Z,100860.44
2022-10-25T03:51:08.310Z,100834.78
2022-10-25T03:53:35.078Z,100845.56
2022-10-25T03:56:02.262Z,100844.47
2022-10-25T03:58:29.263Z,100854.16
2022-10-25T04:00:56.463Z,100863.56
2022-10-25T04:03:23.987Z,100858.66
2022-10-25T04:05:50.904Z,100858.38
2022-10-25T04:08:18.039Z,100858.13
2022-10-25T04:10:44.869Z,100873.47
2022-10-25T04:13:12.076Z,100868.09
2022-10-25T04:15:38.928Z,100868.91
2022-10-25T04:18:06.427Z,100858.09
2022-10-25T04:20:33.337Z,100860.53
2022-10-25T04:23:00.149Z,100868.06
2022-10-25T04:25:28.809Z,100873.47
2022-10-25T04:27:55.866Z,100883.44
2022-10-25T04:30:23.118Z,100881.81
2022-10-25T04:32:50.286Z,100873.47
2022-10-25T04:35:18.030Z,100872.66
2022-10-25T04:37:44.889Z,100878.06
2022-10-25T04:40:12.067Z,100875.09
2022-10-25T04:42:39.168Z,100868.63
2022-10-25T04:45:06.631Z,100867.56
2022-10-25T04:47:34.092Z,100863.25
2022-10-25T04:50:00.975Z,100871.91
2022-10-25T04:52:32.180Z,100867.06
2022-10-25T04:54:59.259Z,100863.81
2022-10-25T04:57:26.865Z,100870.25
2022-10-25T04:59:53.834Z,100866.19
2022-10-25T05:02:20.680Z,100870.53
2022-10-25T05:04:47.713Z,100879.41
2022-10-25T05:07:18.503Z,100874.00
2022-10-25T05:09:47.394Z,100879.94
2022-10-25T05:12:15.003Z,100886.13
2022-10-25T05:14:41.840Z,100874.25
2022-10-25T05:17:08.703Z,100881.78
2022-10-25T05:19:35.737Z,100867.47
2022-10-25T05:22:02.758Z,100880.16
2022-10-25T05:24:29.644Z,100883.69
2022-10-25T05:26:56.636Z,100873.69
2022-10-25T05:29:23.549Z,100874.22
2022-10-25T05:31:50.761Z,100878.81
2022-10-25T05:34:17.565Z,100878.00
2022-10-25T05:36:44.553Z,100870.94
2022-10-25T05:39:11.489Z,100878.75
2022-10-25T05:41:38.297Z,100886.28
2022-10-25T05:44:06.242Z,100886.28
2022-10-25T05:46:33.322Z,100888.69
2022-10-25T05:49:00.571Z,100882.44
2022-10-25T05:51:37.624Z,100891.63
2022-10-25T05:54:12.230Z,100898.66
2022-10-25T05:56:40.174Z,100902.16
2022-10-25T05:59:10.772Z,100902.41
2022-10-25T06:01:41.510Z,100911.59
2022-10-25T06:04:09.837Z,100909.44
2022-10-25T06:06:38.610Z,100917.28
2022-10-25T06:09:06.603Z,100923.00
2022-10-25T06:11:33.856Z,100925.44
2022-10-25T06:14:02.521Z,100925.16
2022-10-25T06:16:29.550Z,100931.09
2022-10-25T06:18:56.548Z,100919.81
2022-10-25T06:21:33.877Z,100937.41
2022-10-25T06:24:00.780Z,100923.34
2022-10-25T06:26:30.108Z,100941.75
2022-10-25T06:29:03.238Z,100937.72
2022-10-25T06:31:31.501Z,100941.78
2022-10-25T06:34:02.818Z,100950.44
2022-10-25T06:36:31.408Z,100942.91
2022-10-25T06:39:03.769Z,100950.75
2022-10-25T06:41:37.236Z,100951.84
2022-10-25T06:44:06.720Z,100959.44
2022-10-25T06:46:57.956Z,100962.41
2022-10-25T06:49:25.112Z,100954.06
2022-10-25T06:51:52.342Z,100971.63
2022-10-25T06:54:19.487Z,100971.91
2022-10-25T06:56:46.466Z,100977.31
2022-10-25T06:59:13.480Z,100975.19
2022-10-25T07:01:40.373Z,100973.31
2022-10-25T07:04:07.566Z,100980.63
2022-10-25T07:06:37.467Z,100989.03
2022-10-25T07:09:06.578Z,100989.59
2022-10-25T07:11:33.821Z,100988.78
2022-10-25T07:14:02.224Z,100985.56
2022-10-25T07:16:29.377Z,100983.97
2022-10-25T07:19:03.586Z,100998.06
2022-10-25T07:21:32.663Z,100991.31
2022-10-25T07:23:59.569Z,100987.81
2022-10-25T07:26:31.256Z,100996.22
2022-10-25T07:29:00.589Z,100994.34
2022-10-25T07:31:36.891Z,100992.47
2022-10-25T07:34:05.438Z,101000.84
2022-10-25T07:36:32.750Z,100989.25
2022-10-25T07:39:03.809Z,100997.09
2022-10-25T07:41:34.067Z,101002.50
2022-10-25T07:46:53.938Z,100996.06
2022-10-25T07:49:20.812Z,101008.50
2022-10-25T07:51:53.737Z,101007.94
2022-10-25T07:54:25.508Z,101005.78
2022-10-25T07:56:52.281Z,101003.63
2022-10-25T07:59:19.201Z,101006.63
2022-10-25T08:01:46.164Z,101001.47
2022-10-25T08:04:13.097Z,101008.50
2022-10-25T08:06:40.569Z,101013.06
2022-10-25T08:09:14.886Z,100999.81
2022-10-25T08:11:54.010Z,101003.06
2022-10-25T08:14:20.941Z,101002.50
2022-10-25T08:16:47.798Z,101009.56
2022-10-25T08:19:14.635Z,101006.31
2022-10-25T08:21:41.713Z,101016.03
2022-10-25T08:24:08.628Z,101030.13
2022-10-25T08:26:36.994Z,101021.72
2022-10-25T08:29:29.675Z,101020.66
2022-10-25T08:31:56.842Z,101020.66
2022-10-25T08:34:32.379Z,101017.16
2022-10-25T08:37:00.355Z,101025.25
2022-10-25T08:39:27.128Z,101027.97
2022-10-25T08:42:00.871Z,101023.09
2022-10-25T08:44:45.773Z,101033.38
2022-10-25T08:47:27.134Z,101031.22
2022-10-25T08:50:01.998Z,101039.59
2022-10-25T08:52:54.645Z,101040.97
2022-10-25T08:55:41.579Z,101048.50
2022-10-25T08:58:45.291Z,101036.59
2022-10-25T09:01:24.760Z,101035.53
2022-10-25T09:03:54.223Z,101036.06
2022-10-25T09:06:56.168Z,101028.53
2022-10-25T09:12:53.067Z,101044.47
2022-10-25T09:15:30.390Z,101046.34
2022-10-25T09:18:19.332Z,101046.63
2022-10-25T09:20:51.116Z,101042.75
2022-10-25T09:23:36.194Z,101038.94
2022-10-25T09:26:26.373Z,101040.25
2022-10-25T09:29:05.322Z,101045.38
2022-10-25T09:31:43.187Z,101038.56
2022-10-25T09:34:11.463Z,101046.13
2022-10-25T09:36:47.153Z,101048.84
2022-10-25T09:39:42.929Z,101054.00
2022-10-25T09:42:22.186Z,101047.22
2022-10-25T09:44:55.037Z,101054.75
2022-10-25T09:47:51.046Z,101046.59
2022-10-25T09:50:44.522Z,101055.47
2022-10-25T09:53:20.328Z,101056.22
2022-10-25T09:56:02.589Z,101069.59
2022-10-25T09:58:36.620Z,101059.69
2022-10-25T10:01:18.382Z,101053.50
2022-10-25T10:09:35.085Z,101064.03
2022-10-25T10:15:01.455Z,101064.59
2022-10-25T10:17:30.551Z,101067.09
2022-10-25T10:20:16.784Z,101063.88
2022-10-25T10:22:51.842Z,101063.00
2022-10-25T10:25:26.557Z,101078.00
2022-10-25T10:27:58.057Z,101076.19
2022-10-25T10:30:31.617Z,101075.13
2022-10-25T10:33:01.534Z,101080.94
2022-10-25T10:35:31.917Z,101089.63
2022-10-25T10:38:24.737Z,101073.69
2022-10-25T10:41:23.516Z,101085.19
2022-10-25T10:43:51.213Z,101089.03
2022-10-25T10:46:24.815Z,101083.66
2022-10-25T10:48:57.493Z,101081.00
2022-10-25T10:51:44.054Z,101075.63
2022-10-25T10:54:46.517Z,101078.94
2022-10-25T10:57:35.996Z,101086.25
2022-10-25T11:00:05.700Z,101084.63
2022-10-25T11:02:42.311Z,101086.78
2022-10-25T11:05:34.210Z,101094.34
2022-10-25T11:08:19.598Z,101081.38
2022-10-25T11:10:46.765Z,101078.13
2022-10-25T11:13:17.204Z,101075.84
2022-10-25T11:16:41.443Z,101089.56
2022-10-25T11:19:11.260Z,101080.16
2022-10-25T11:22:00.479Z,101078.75
2022-10-25T11:24:53.676Z,101077.59
2022-10-25T11:28:05.085Z,101073.50
2022-10-25T11:31:11.172Z,101070.94
2022-10-25T11:34:32.856Z,101061.63
2022-10-25T11:37:24.473Z,101059.69
2022-10-25T11:40:13.631Z,101053.44
2022-10-25T11:42:48.876Z,101064.56
2022-10-25T11:45:31.749Z,101047.69
2022-10-25T11:48:30.305Z,101068.91
2022-10-25T11:51:32.161Z,101055.56
2022-10-25T11:54:13.965Z,101059.09
2022-10-25T11:57:08.845Z,101062.41
2022-10-25T12:00:03.876Z,101051.25
2022-10-25T12:03:01.890Z,101045.47
2022-10-25T12:06:14.104Z,101056.69
2022-10-25T12:09:21.825Z,101042.78
2022-10-25T12:11:54.169Z,101046.44
2022-10-25T12:14:33.996Z,101056.59
2022-10-25T12:17:03.444Z,101048.69
2022-10-25T12:19:44.009Z,101061.94
2022-10-25T12:22:40.421Z,101056.69
2022-10-25T12:25:22.972Z,101058.47
2022-10-25T12:28:06.739Z,101059.09
2022-10-25T12:30:35.351Z,101061.53
2022-10-25T12:33:25.823Z,101061.00
2022-10-25T12:35:59.690Z,101073.97
2022-10-25T12:38:39.528Z,101075.19
2022-10-25T12:41:19.772Z,101070.13
2022-10-25T12:44:37.721Z,101074.69
2022-10-25T12:47:40.876Z,101073.63
2022-10-25T12:50:35.817Z,101068.63
2022-10-25T12:53:35.122Z,101080.47
2022-10-25T12:56:48.135Z,101075.16
2022-10-25T12:59:45.000Z,101071.50
2022-10-25T13:02:44.491Z,101077.94
2022-10-25T13:05:49.284Z,101091.72
2022-10-25T13:08:22.436Z,101090.63
2022-10-25T13:10:58.617Z,101096.06
2022-10-25T13:13:33.766Z,101091.41
2022-10-25T13:16:05.347Z,101100.16
2022-10-25T13:18:32.403Z,101090.84
2022-10-25T13:21:05.609Z,101091.88
2022-10-25T13:23:51.616Z,101091.50
2022-10-25T13:26:21.385Z,101098.69
2022-10-25T13:28:54.301Z,101089.66
2022-10-25T13:31:36.300Z,101089.56
2022-10-25T13:34:12.576Z,101094.53
2022-10-25T13:36:54.168Z,101103.69
2022-10-25T13:39:38.630Z,101109.47
2022-10-25T13:42:14.515Z,101111.09
2022-10-25T13:44:59.357Z,101108.34
2022-10-25T13:47:48.191Z,101125.25
2022-10-25T13:50:30.881Z,101122.72
2022-10-25T13:53:08.791Z,101122.25
2022-10-25T13:55:46.584Z,101137.84
2022-10-25T13:58:31.718Z,101133.97
2022-10-25T14:01:17.933Z,101144.50
2022-10-25T14:04:03.639Z,101151.47
2022-10-25T14:06:36.365Z,101148.81
2022-10-25T14:09:09.511Z,101155.41
2022-10-25T14:11:51.709Z,101153.84
2022-10-25T14:14:31.704Z,101152.56
2022-10-25T14:17:18.888Z,101159.69
2022-10-25T14:19:54.828Z,101158.66
2022-10-25T14:22:34.972Z,101147.88
2022-10-25T14:25:20.844Z,101168.31
2022-10-25T14:27:48.565Z,101165.16
2022-10-25T14:30:26.100Z,101166.53
2022-10-25T14:33:03.702Z,101167.41
2022-10-25T14:35:55.998Z,101159.53
2022-10-25T14:38:26.493Z,101164.72
2022-10-25T14:41:00.149Z,101173.97
2022-10-25T14:43:28.669Z,101172.34
2022-10-25T14:46:11.606Z,101161.53
2022-10-25T14:48:38.729Z,101161.56
2022-10-25T14:51:12.861Z,101164.28
2022-10-25T14:53:56.957Z,101159.38
2022-10-25T14:56:32.868Z,101166.34
2022-10-25T14:59:00.936Z,101169.06
2022-10-25T15:01:28.193Z,101166.34
2022-10-25T15:03:59.345Z,101171.00
2022-10-25T15:06:31.391Z,101172.66
2022-10-25T15:09:40.721Z,101170.28
2022-10-25T15:12:08.129Z,101171.47
2022-10-25T15:14:35.739Z,101171.78
2022-10-25T15:17:18.820Z,101165.88
2022-10-25T15:20:16.998Z,101181.44
2022-10-25T15:22:47.469Z,101172.53
2022-10-25T15:25:23.983Z,101176.91
2022-10-25T15:27:55.617Z,101181.03
2022-10-25T15:30:50.026Z,101181.31
2022-10-25T15:33:25.605Z,101181.59
2022-10-25T15:36:04.437Z,101175.38
2022-10-25T15:39:06.303Z,101183.53
2022-10-25T15:41:23.665Z,101185.16
2022-10-25T15:43:52.162Z,101186.22
2022-10-25T15:46:36.320Z,101190.00
2022-10-25T15:49:08.509Z,101179.72
2022-10-25T15:51:40.997Z,101181.34
2022-10-25T15:54:20.224Z,101190.03
2022-10-25T15:57:11.972Z,101188.94
2022-10-25T15:59:39.039Z,101194.56
2022-10-25T16:02:23.374Z,101193.75
2022-10-25T16:04:50.494Z,101189.16
2022-10-25T16:07:17.721Z,101198.34
2022-10-25T16:09:44.633Z,101199.66
2022-10-25T16:12:30.603Z,101198.31
2022-10-25T16:15:22.822Z,101200.94
2022-10-25T16:17:49.735Z,101190.38
2022-10-25T16:20:21.705Z,101207.41
2022-10-25T16:22:49.949Z,101205.75
2022-10-25T16:25:18.623Z,101203.28
2022-10-25T16:27:47.147Z,101196.19
2022-10-25T16:30:18.721Z,101208.59
2022-10-25T16:32:46.220Z,101214.25
2022-10-25T16:35:14.197Z,101223.16
2022-10-25T16:37:42.078Z,101228.78
2022-10-25T16:40:14.844Z,101231.44
2022-10-25T16:42:45.222Z,101232.75
2022-10-25T16:45:20.800Z,101231.66
2022-10-25T16:47:47.639Z,101231.88
2022-10-25T16:50:15.128Z,101240.22
2022-10-25T16:52:42.311Z,101228.00
2022-10-25T16:55:10.824Z,101243.09
2022-10-25T16:57:37.932Z,101236.84
2022-10-25T17:00:05.670Z,101237.38
2022-10-25T17:02:32.687Z,101245.97
2022-10-25T17:04:59.838Z,101241.34
2022-10-25T17:07:27.177Z,101244.56
2022-10-25T17:09:54.030Z,101251.56
2022-10-25T17:12:21.186Z,101251.25
2022-10-25T17:14:48.154Z,101252.50
2022-10-25T17:17:15.116Z,101252.72
2022-10-25T17:19:42.144Z,101262.66
2022-10-25T17:22:09.454Z,101263.69
2022-10-25T17:24:37.502Z,101262.56
2022-10-25T17:27:07.062Z,101264.13
2022-10-25T17:29:33.990Z,101268.41
2022-10-25T17:32:01.087Z,101274.81
2022-10-25T17:34:28.327Z,101268.56
2022-10-25T17:36:55.140Z,101279.03
2022-10-25T17:39:22.226Z,101277.91
2022-10-25T17:41:49.124Z,101274.84
2022-10-25T17:44:15.940Z,101283.19
2022-10-25T17:49:10.748Z,101283.63
2022-10-25T17:51:37.678Z,101288.69
2022-10-25T17:54:04.552Z,101283.50
2022-10-25T17:59:05.741Z,101290.66
2022-10-25T18:01:35.413Z,101293.88
2022-10-25T18:04:02.488Z,101294.38
2022-10-25T18:06:31.107Z,101297.00
2022-10-25T18:08:59.081Z,101291.03
2022-10-25T18:11:28.163Z,101289.09
2022-10-25T18:13:58.089Z,101292.53
2022-10-25T18:16:27.110Z,101290.59
2022-10-25T18:18:57.240Z,101288.66
2022-10-25T18:21:24.818Z,101288.56
2022-10-25T18:23:57.360Z,101301.47
2022-10-25T18:26:25.260Z,101298.47
2022-10-25T18:28:52.324Z,101303.78
2022-10-25T18:31:20.867Z,101308.84
2022-10-25T18:33:48.278Z,101308.53
2022-10-25T18:36:19.898Z,101307.38
2022-10-25T18:38:50.351Z,101312.75
2022-10-25T18:41:21.947Z,101311.88
2022-10-25T18:43:49.064Z,101305.69
2022-10-25T18:46:16.325Z,101307.00
2022-10-25T18:48:45.065Z,101313.44
2022-10-25T18:51:14.108Z,101316.38
2022-10-25T18:53:41.173Z,101306.09
2022-10-25T18:56:11.297Z,101317.44
2022-10-25T18:58:39.020Z,101309.84
2022-10-25T19:01:12.462Z,101314.97
2022-10-25T19:03:40.503Z,101324.94
2022-10-25T19:06:08.534Z,101318.16
2022-10-25T19:08:36.729Z,101325.19
2022-10-25T19:11:10.409Z,101320.38
2022-10-25T19:13:38.425Z,101313.84
2022-10-25T19:16:06.314Z,101326.81
2022-10-25T19:18:34.326Z,101317.91
2022-10-25T19:21:07.910Z,101318.97
2022-10-25T19:23:35.744Z,101314.66
2022-10-25T19:26:09.410Z,101313.84
2022-10-25T19:28:36.330Z,101308.94
2022-10-25T19:31:06.974Z,101307.56
2022-10-25T19:33:34.449Z,101311.28
2022-10-25T19:36:05.234Z,101310.94
2022-10-25T19:38:36.117Z,101309.22
2022-10-25T19:41:05.886Z,101311.59
2022-10-25T19:43:33.503Z,101326.34
2022-10-25T19:46:04.920Z,101319.81
2022-10-25T19:48:32.975Z,101322.41
2022-10-25T19:51:10.026Z,101326.91
2022-10-25T19:53:37.302Z,101324.19
2022-10-25T19:56:21.880Z,101327.38
2022-10-25T19:58:51.551Z,101336.75
2022-10-25T20:01:23.362Z,101331.63
2022-10-25T20:03:52.942Z,101332.91
2022-10-25T20:06:24.686Z,101333.41
2022-10-25T20:08:52.945Z,101336.91
2022-10-25T20:11:21.750Z,101335.75
2022-10-25T20:13:53.317Z,101339.50
2022-10-25T20:16:20.632Z,101329.22
2022-10-25T20:18:47.473Z,101335.09
2022-10-25T20:21:39.713Z,101337.91
2022-10-25T20:24:10.195Z,101341.66
2022-10-25T20:26:40.865Z,101339.47
2022-10-25T20:29:18.453Z,101344.75
2022-10-25T20:31:48.849Z,101345.69
2022-10-25T20:34:16.427Z,101346.41
2022-10-25T20:36:43.272Z,101354.97
2022-10-25T20:39:12.790Z,101367.22
2022-10-25T20:41:40.113Z,101371.19
2022-10-25T20:44:08.730Z,101373.53
2022-10-25T20:46:36.117Z,101375.88
2022-10-25T20:49:04.805Z,101375.88
2022-10-25T20:51:31.931Z,101376.34
2022-10-25T20:53:58.873Z,101379.28
2022-10-25T20:56:26.057Z,101377.66
2022-10-25T20:58:52.944Z,101377.06
2022-10-25T21:01:21.341Z,101371.59
2022-10-25T21:03:48.303Z,101375.31
2022-10-25T21:06:15.412Z,101379.53
2022-10-25T21:08:42.310Z,101367.41
2022-10-25T21:11:12.386Z,101373.78
2022-10-25T21:13:39.692Z,101378.81
2022-10-25T21:16:13.038Z,101389.81
2022-10-25T21:18:41.125Z,101382.22
2022-10-25T21:21:13.237Z,101373.56
2022-10-25T21:23:40.119Z,101385.94
2022-10-25T21:26:08.100Z,101389.09
2022-10-25T21:28:38.299Z,101376.97
2022-10-25T21:31:09.344Z,101379.66
2022-10-25T21:33:36.436Z,101391.69
2022-10-25T21:36:11.683Z,101391.69
2022-10-25T21:38:39.731Z,101392.38
2022-10-25T21:41:13.964Z,101392.28
2022-10-25T21:43:44.959Z,101390.88
2022-10-25T21:46:13.038Z,101395.06
2022-10-25T21:48:40.704Z,101387.72
2022-10-25T21:51:07.941Z,101391.69
2022-10-25T21:53:34.915Z,101396.25
2022-10-25T21:56:13.035Z,101399.41
2022-10-25T21:58:42.497Z,101390.75
2022-10-25T22:01:15.873Z,101399.84
2022-10-25T22:03:43.079Z,101397.41
2022-10-25T22:06:17.467Z,101398.47
2022-10-25T22:08:45.300Z,101404.06
2022-10-25T22:11:15.053Z,101398.31
2022-10-25T22:13:42.757Z,101399.34
2022-10-25T22:16:16.049Z,101399.59
2022-10-25T22:18:47.864Z,101396.31
2022-10-25T22:21:14.796Z,101395.97
2022-10-25T22:23:41.739Z,101397.25
2022-10-25T22:26:12.265Z,101395.59
2022-10-25T22:28:41.086Z,101391.53
2022-10-25T22:31:15.963Z,101396.06
2022-10-25T22:33:44.149Z,101398.63
2022-10-25T22:36:16.429Z,101406.91
2022-10-25T22:38:43.887Z,101403.88
2022-10-25T22:41:16.570Z,101407.03
2022-10-25T22:43:43.989Z,101395.13
2022-10-25T22:46:22.150Z,101406.91
2022-10-25T22:48:49.763Z,101398.13
2022-10-25T22:51:16.947Z,101408.84
2022-10-25T22:53:44.186Z,101414.00
2022-10-25T22:56:22.165Z,101401.03
2022-10-25T22:58:52.473Z,101409.31
2022-10-25T23:01:31.652Z,101413.50
2022-10-25T23:04:00.313Z,101415.81
2022-10-25T23:06:33.968Z,101415.25
2022-10-25T23:09:05.877Z,101420.47
2022-10-25T23:11:35.506Z,101421.97
2022-10-25T23:14:05.047Z,101414.03
2022-10-25T23:16:32.139Z,101417.75
2022-10-25T23:18:59.294Z,101410.59
2022-10-25T23:21:30.217Z,101407.31
2022-10-25T23:24:03.609Z,101408.34
2022-10-25T23:26:33.561Z,101408.34
2022-10-25T23:29:01.232Z,101407.75
2022-10-25T23:31:29.697Z,101406.94
2022-10-25T23:33:59.984Z,101408.00
2022-10-25T23:36:30.957Z,101407.63
2022-10-25T23:38:58.551Z,101410.31
2022-10-25T23:41:25.672Z,101400.22
2022-10-25T23:43:52.932Z,101399.66
2022-10-25T23:46:19.735Z,101415.13
2022-10-25T23:49:11.819Z,101418.50
2022-10-25T23:51:38.676Z,101417.53
2022-10-25T23:54:09.331Z,101409.72
2022-10-25T23:56:37.304Z,101413.88
2022-10-25T23:59:04.342Z,101411.66
